Time;durP1;ratioP1;P1;durP2;ratioP2;P2;SDS_P1;SDS_P2;PMS_P1;PMS_P2;Temp;Humidity;BMP_temperature;BMP_pressure;BME280_temperature;BME280_humidity;BME280_pressure;Samples;Min_cycle;Max_cycle;Signal;HPM_P1;HPM_P2
2022/01/19 00:00:30;;;;;;;56.45;29.75;;;;;;;;;;5081954;28;20060;-72
2022/01/19 00:02:58;;;;;;;61.63;29.85;;;;;;;;;;5083928;28;20414;-71
2022/01/19 00:05:25;;;;;;;59.83;29.70;;;;;;;;;;5079512;28;20063;-71
2022/01/19 00:07:52;;;;;;;61.45;30.73;;;;;;;;;;5081116;28;20052;-71
2022/01/19 00:10:27;;;;;;;62.25;29.55;;;;;;;;;;5083575;28;20052;-71
2022/01/19 00:12:54;;;;;;;49.95;28.88;;;;;;;;;;5078868;28;20051;-71
2022/01/19 00:15:21;;;;;;;62.33;32.38;;;;;;;;;;5078375;28;20135;-71
2022/01/19 00:17:54;;;;;;;61.67;31.25;;;;;;;;;;5075761;28;20044;-71
2022/01/19 00:20:22;;;;;;;68.30;33.95;;;;;;;;;;5082461;28;20049;-71
2022/01/19 00:22:49;;;;;;;63.60;33.22;;;;;;;;;;5081681;28;20094;-71
2022/01/19 00:25:17;;;;;;;60.50;32.95;;;;;;;;;;5085383;28;20116;-71
2022/01/19 00:27:44;;;;;;;71.70;32.72;;;;;;;;;;5079117;28;20040;-71
2022/01/19 00:30:11;;;;;;;71.20;32.35;;;;;;;;;;5083305;28;20047;-71
2022/01/19 00:32:38;;;;;;;67.03;32.15;;;;;;;;;;5084112;28;20044;-71
2022/01/19 00:35:09;;;;;;;60.03;31.35;;;;;;;;;;5076284;28;20117;-71
2022/01/19 00:37:36;;;;;;;55.58;27.17;;;;;;;;;;5083657;28;20470;-71
2022/01/19 00:40:04;;;;;;;56.92;26.40;;;;;;;;;;5080491;28;20066;-71
2022/01/19 00:42:31;;;;;;;59.47;27.65;;;;;;;;;;5077284;28;20075;-71
2022/01/19 00:44:59;;;;;;;59.55;26.17;;;;;;;;;;5078126;28;20110;-71
2022/01/19 00:47:26;;;;;;;59.25;27.80;;;;;;;;;;5079395;28;20132;-71
2022/01/19 00:49:54;;;;;;;51.10;27.90;;;;;;;;;;5075796;28;20052;-71
2022/01/19 00:52:23;;;;;;;55.97;29.75;;;;;;;;;;5082433;28;20537;-71
2022/01/19 00:54:50;;;;;;;57.95;30.60;;;;;;;;;;5078198;28;20135;-71
2022/01/19 00:57:17;;;;;;;69.95;33.15;;;;;;;;;;5083192;28;20048;-71
2022/01/19 00:59:44;;;;;;;66.05;33.38;;;;;;;;;;5082103;28;20105;-71
2022/01/19 01:02:12;;;;;;;67.00;33.80;;;;;;;;;;5078141;28;20437;-71
2022/01/19 01:04:39;;;;;;;59.60;30.83;;;;;;;;;;5078928;28;20059;-71
2022/01/19 01:07:06;;;;;;;60.65;29.60;;;;;;;;;;5078838;28;20075;-71
2022/01/19 01:09:35;;;;;;;56.35;27.02;;;;;;;;;;5075549;28;20044;-71
2022/01/19 01:12:02;;;;;;;48.30;23.02;;;;;;;;;;5078728;28;20040;-71
2022/01/19 01:19:57;;;;;;;54.75;25.83;;;;;;;;;;5073986;28;20040;-71
2022/01/19 01:22:24;;;;;;;48.55;25.33;;;;;;;;;;5082535;28;20055;-71
2022/01/19 01:24:53;;;;;;;57.63;25.90;;;;;;;;;;5083776;28;20524;-71
2022/01/19 01:27:20;;;;;;;52.42;26.92;;;;;;;;;;5083040;28;20052;-71
2022/01/19 01:29:47;;;;;;;58.90;25.75;;;;;;;;;;5080655;28;20044;-71
2022/01/19 01:32:15;;;;;;;48.95;24.50;;;;;;;;;;5081414;28;20048;-71
2022/01/19 01:34:42;;;;;;;49.45;26.05;;;;;;;;;;5081981;28;20459;-71
2022/01/19 01:37:09;;;;;;;52.92;26.63;;;;;;;;;;5076564;28;20916;-71
2022/01/19 01:39:36;;;;;;;58.67;26.40;;;;;;;;;;5080213;28;20465;-71
2022/01/19 01:42:10;;;;;;;47.05;24.92;;;;;;;;;;5076384;28;20044;-71
2022/01/19 01:44:38;;;;;;;52.05;24.85;;;;;;;;;;5078947;28;20514;-71
2022/01/19 01:47:06;;;;;;;50.45;25.10;;;;;;;;;;5075534;28;20060;-71
2022/01/19 01:49:45;;;;;;;52.83;23.73;;;;;;;;;;5080069;28;20055;-71
2022/01/19 01:54:58;;;;;;;53.00;28.98;;;;;;;;;;5080066;28;20499;-71
2022/01/19 01:57:26;;;;;;;60.58;30.67;;;;;;;;;;5081295;28;20187;-71
2022/01/19 01:59:54;;;;;;;61.80;31.95;;;;;;;;;;5082607;28;20494;-71
2022/01/19 02:02:21;;;;;;;66.57;32.47;;;;;;;;;;5083665;28;20040;-71
2022/01/19 02:04:48;;;;;;;62.67;33.58;;;;;;;;;;5090801;28;20060;-71
2022/01/19 02:07:32;;;;;;;70.50;32.75;;;;;;;;;;5082150;28;20051;-71
2022/01/19 02:10:01;;;;;;;59.13;30.63;;;;;;;;;;5076413;28;20147;-71
2022/01/19 02:23:37;;;;;;;91.25;35.35;;;;;;;;;;5080338;28;20054;-70
2022/01/19 02:26:09;;;;;;;87.80;34.10;;;;;;;;;;5076116;28;20050;-70
2022/01/19 02:29:03;;;;;;;89.43;33.05;;;;;;;;;;5075815;28;20060;-70
2022/01/19 02:40:15;;;;;;;134.23;38.38;;;;;;;;;;5078950;28;20048;-70
2022/01/19 02:42:54;;;;;;;160.60;42.95;;;;;;;;;;5084109;28;20050;-70
2022/01/19 02:50:51;;;;;;;164.98;39.92;;;;;;;;;;5076693;28;20071;-70
2022/01/19 02:53:20;;;;;;;152.95;39.25;;;;;;;;;;5077698;28;20101;-70
2022/01/19 02:55:47;;;;;;;160.23;40.88;;;;;;;;;;5080383;28;20093;-70
2022/01/19 02:58:18;;;;;;;155.60;38.83;;;;;;;;;;5083430;28;20037;-70
2022/01/19 03:09:01;;;;;;;174.23;42.78;;;;;;;;;;5079823;28;20071;-70
2022/01/19 03:11:28;;;;;;;198.07;47.95;;;;;;;;;;5073471;28;20074;-70
2022/01/19 03:13:56;;;;;;;195.13;47.25;;;;;;;;;;5078136;28;20051;-70
2022/01/19 03:16:23;;;;;;;265.77;51.05;;;;;;;;;;5080210;28;20391;-70
2022/01/19 03:18:51;;;;;;;217.23;49.00;;;;;;;;;;5076087;28;20472;-70
2022/01/19 03:21:18;;;;;;;226.48;49.97;;;;;;;;;;5077308;28;20055;-70
2022/01/19 03:23:46;;;;;;;277.08;53.45;;;;;;;;;;5078022;28;20048;-70
2022/01/19 03:26:14;;;;;;;256.45;52.03;;;;;;;;;;5077346;28;20117;-70
2022/01/19 03:28:42;;;;;;;271.50;51.55;;;;;;;;;;5077409;28;20054;-70
2022/01/19 03:31:09;;;;;;;223.18;49.83;;;;;;;;;;5079833;28;20062;-70
2022/01/19 03:33:36;;;;;;;183.27;44.53;;;;;;;;;;5077847;28;20475;-70
2022/01/19 03:36:04;;;;;;;190.57;45.53;;;;;;;;;;5078637;28;20117;-70
2022/01/19 03:38:31;;;;;;;188.73;45.97;;;;;;;;;;5076284;28;20102;-70
2022/01/19 03:40:58;;;;;;;180.55;45.95;;;;;;;;;;5079914;28;20414;-70
2022/01/19 03:43:27;;;;;;;181.85;46.70;;;;;;;;;;5080612;28;21402;-70
2022/01/19 03:45:57;;;;;;;203.13;47.20;;;;;;;;;;5077969;28;20043;-70
2022/01/19 03:48:36;;;;;;;191.88;45.95;;;;;;;;;;5081004;28;20066;-70
2022/01/19 03:51:04;;;;;;;201.25;47.72;;;;;;;;;;5083784;28;20137;-70
2022/01/19 03:53:31;;;;;;;216.45;48.30;;;;;;;;;;5079683;28;20056;-70
2022/01/19 03:55:58;;;;;;;256.15;51.83;;;;;;;;;;5082986;28;20048;-71
2022/01/19 03:58:27;;;;;;;234.25;50.35;;;;;;;;;;5080312;28;20048;-71
2022/01/19 04:00:57;;;;;;;232.13;49.08;;;;;;;;;;5079102;28;20172;-71
2022/01/19 04:03:33;;;;;;;245.38;49.47;;;;;;;;;;5083059;28;20036;-71
2022/01/19 04:06:05;;;;;;;282.25;50.78;;;;;;;;;;5084261;28;20163;-71
2022/01/19 04:08:33;;;;;;;268.23;49.38;;;;;;;;;;5081645;28;20051;-70
2022/01/19 04:11:00;;;;;;;254.65;48.60;;;;;;;;;;5085162;28;20097;-70
2022/01/19 04:13:44;;;;;;;233.30;45.30;;;;;;;;;;5081615;28;21350;-70
2022/01/19 04:16:11;;;;;;;266.08;48.45;;;;;;;;;;5075895;28;20400;-70
2022/01/19 04:18:38;;;;;;;259.08;47.15;;;;;;;;;;5079037;28;20101;-70
2022/01/19 04:21:07;;;;;;;262.90;47.17;;;;;;;;;;5082003;28;20060;-70
2022/01/19 04:23:34;;;;;;;253.15;46.70;;;;;;;;;;5081475;28;20044;-70
2022/01/19 04:26:03;;;;;;;240.23;48.58;;;;;;;;;;5081528;28;20047;-70
2022/01/19 04:28:33;;;;;;;248.77;48.15;;;;;;;;;;5076916;28;20067;-70
2022/01/19 04:31:00;;;;;;;230.65;46.72;;;;;;;;;;5079173;28;20074;-70
2022/01/19 04:33:28;;;;;;;235.68;47.38;;;;;;;;;;5078589;28;20056;-70
2022/01/19 04:36:08;;;;;;;247.90;48.20;;;;;;;;;;5078555;28;20088;-70
2022/01/19 04:44:30;;;;;;;253.13;47.17;;;;;;;;;;5079002;28;20047;-71
2022/01/19 05:03:50;;;;;;;228.02;46.72;;;;;;;;;;5075214;28;20044;-71
2022/01/19 05:06:19;;;;;;;227.02;46.28;;;;;;;;;;5082297;28;20502;-71
2022/01/19 05:14:19;;;;;;;233.57;47.10;;;;;;;;;;5079277;28;20056;-71
2022/01/19 05:16:47;;;;;;;212.07;46.83;;;;;;;;;;5084688;28;20043;-71
2022/01/19 05:19:14;;;;;;;204.02;45.42;;;;;;;;;;5082621;28;20056;-71
2022/01/19 05:21:41;;;;;;;197.38;46.05;;;;;;;;;;5080390;28;20640;-71
2022/01/19 05:24:09;;;;;;;201.45;45.78;;;;;;;;;;5080670;28;20585;-71
2022/01/19 05:26:37;;;;;;;188.05;45.15;;;;;;;;;;5077206;28;20044;-71
2022/01/19 05:29:04;;;;;;;209.05;47.92;;;;;;;;;;5075347;28;20059;-71
2022/01/19 05:31:32;;;;;;;185.32;46.50;;;;;;;;;;5081732;28;20121;-71
2022/01/19 05:34:00;;;;;;;197.05;47.95;;;;;;;;;;5079548;28;20082;-71
2022/01/19 05:36:27;;;;;;;174.30;45.65;;;;;;;;;;5075932;28;20826;-71
2022/01/19 05:38:55;;;;;;;190.98;45.33;;;;;;;;;;5078614;28;20051;-71
2022/01/19 05:41:22;;;;;;;171.30;44.35;;;;;;;;;;5078271;28;20048;-71
2022/01/19 05:43:49;;;;;;;197.63;49.13;;;;;;;;;;5078528;28;20140;-71
2022/01/19 05:46:16;;;;;;;206.60;48.72;;;;;;;;;;5078978;28;20107;-71
2022/01/19 05:48:44;;;;;;;200.75;47.83;;;;;;;;;;5076390;28;20062;-70
2022/01/19 05:51:12;;;;;;;178.95;46.90;;;;;;;;;;5075453;28;20055;-70
2022/01/19 05:53:40;;;;;;;175.80;45.45;;;;;;;;;;5075053;28;20048;-70
2022/01/19 05:56:07;;;;;;;179.45;45.85;;;;;;;;;;5076726;28;20521;-70
2022/01/19 05:58:35;;;;;;;169.18;44.95;;;;;;;;;;5080879;28;20052;-70
2022/01/19 06:01:02;;;;;;;179.40;47.40;;;;;;;;;;5075854;28;20060;-70
2022/01/19 06:03:29;;;;;;;176.50;47.58;;;;;;;;;;5074861;28;20501;-70
2022/01/19 06:05:56;;;;;;;179.32;46.72;;;;;;;;;;5072334;28;20054;-70
2022/01/19 06:08:41;;;;;;;172.82;46.95;;;;;;;;;;5064729;28;20040;-70
2022/01/19 06:11:08;;;;;;;169.63;46.05;;;;;;;;;;5073679;28;20055;-70
2022/01/19 06:13:35;;;;;;;176.73;47.55;;;;;;;;;;5069061;28;20040;-70
2022/01/19 06:16:03;;;;;;;178.65;47.72;;;;;;;;;;5076721;28;20133;-70
2022/01/19 06:18:30;;;;;;;181.25;48.85;;;;;;;;;;5068415;28;20040;-70
2022/01/19 06:20:57;;;;;;;178.23;47.38;;;;;;;;;;5069834;28;20571;-70
2022/01/19 06:23:26;;;;;;;172.55;47.97;;;;;;;;;;5072324;28;20048;-70
2022/01/19 06:25:53;;;;;;;175.15;48.65;;;;;;;;;;5071445;28;20056;-70
2022/01/19 06:28:20;;;;;;;174.70;49.15;;;;;;;;;;5072998;28;20143;-71
2022/01/19 06:30:47;;;;;;;165.55;48.20;;;;;;;;;;5073975;28;20052;-70
2022/01/19 06:33:15;;;;;;;159.25;47.33;;;;;;;;;;5067960;28;20407;-70
2022/01/19 06:35:42;;;;;;;174.45;50.13;;;;;;;;;;5076840;28;20417;-69
2022/01/19 06:38:09;;;;;;;162.57;47.83;;;;;;;;;;5077493;28;20063;-69
2022/01/19 06:40:38;;;;;;;174.60;48.25;;;;;;;;;;5076255;28;20568;-70
2022/01/19 06:43:05;;;;;;;157.93;48.67;;;;;;;;;;5074153;28;20098;-70
2022/01/19 06:45:32;;;;;;;155.73;46.83;;;;;;;;;;5081871;28;20048;-70
2022/01/19 06:47:59;;;;;;;155.25;48.08;;;;;;;;;;5076314;28;20409;-70
2022/01/19 06:50:28;;;;;;;157.23;48.75;;;;;;;;;;5070288;28;20060;-70
2022/01/19 06:52:55;;;;;;;161.07;48.13;;;;;;;;;;5075665;28;20048;-70
2022/01/19 06:55:22;;;;;;;145.43;47.70;;;;;;;;;;5071087;28;20890;-70
2022/01/19 06:57:51;;;;;;;146.85;48.78;;;;;;;;;;5071221;28;20053;-70
2022/01/19 07:00:18;;;;;;;138.90;46.75;;;;;;;;;;5074129;28;20059;-70
2022/01/19 07:02:46;;;;;;;144.77;48.30;;;;;;;;;;5072564;28;20046;-70
2022/01/19 07:05:13;;;;;;;143.15;48.08;;;;;;;;;;5073324;28;20071;-70
2022/01/19 07:07:40;;;;;;;141.13;47.42;;;;;;;;;;5075288;28;20051;-70
2022/01/19 07:10:08;;;;;;;147.98;48.80;;;;;;;;;;5073356;28;20053;-70
2022/01/19 07:12:36;;;;;;;142.68;48.75;;;;;;;;;;5082281;28;20130;-70
2022/01/19 07:15:04;;;;;;;144.68;47.47;;;;;;;;;;5078616;28;20467;-70
2022/01/19 07:17:32;;;;;;;138.52;47.00;;;;;;;;;;5076951;28;20052;-70
2022/01/19 07:19:59;;;;;;;132.00;46.10;;;;;;;;;;5081552;28;20143;-70
2022/01/19 07:22:26;;;;;;;136.75;46.50;;;;;;;;;;5082529;28;20097;-70
2022/01/19 07:24:53;;;;;;;138.23;46.97;;;;;;;;;;5082824;28;20063;-70
2022/01/19 07:27:20;;;;;;;138.13;47.35;;;;;;;;;;5084492;28;20048;-70
2022/01/19 07:29:48;;;;;;;117.97;45.53;;;;;;;;;;5076088;28;20967;-70
2022/01/19 07:32:16;;;;;;;133.52;46.22;;;;;;;;;;5073097;28;20060;-70
2022/01/19 07:34:43;;;;;;;134.85;48.78;;;;;;;;;;5077479;28;20710;-70
2022/01/19 07:37:11;;;;;;;116.90;45.22;;;;;;;;;;5084078;28;20132;-70
2022/01/19 07:39:38;;;;;;;120.80;44.88;;;;;;;;;;5087198;28;20051;-70
2022/01/19 07:42:06;;;;;;;121.75;45.65;;;;;;;;;;5082265;28;20049;-70
2022/01/19 07:44:33;;;;;;;116.78;45.15;;;;;;;;;;5076356;28;20056;-70
2022/01/19 07:47:01;;;;;;;111.72;44.42;;;;;;;;;;5077049;28;20163;-70
2022/01/19 07:49:29;;;;;;;109.53;44.85;;;;;;;;;;5080022;28;20055;-70
2022/01/19 07:51:56;;;;;;;114.55;44.38;;;;;;;;;;5089786;28;20044;-70
2022/01/19 07:54:24;;;;;;;120.28;45.63;;;;;;;;;;5084129;28;20085;-70
2022/01/19 07:56:51;;;;;;;105.78;44.08;;;;;;;;;;5076188;28;20391;-69
2022/01/19 07:59:18;;;;;;;99.22;41.20;;;;;;;;;;5083050;28;20101;-70
2022/01/19 08:01:46;;;;;;;107.90;43.70;;;;;;;;;;5078357;28;20342;-70
2022/01/19 08:04:14;;;;;;;104.75;43.67;;;;;;;;;;5077279;28;20061;-70
2022/01/19 08:06:42;;;;;;;104.90;41.78;;;;;;;;;;5088852;28;20153;-70
2022/01/19 08:09:09;;;;;;;94.65;39.63;;;;;;;;;;5081462;28;20068;-70
2022/01/19 08:11:37;;;;;;;96.93;41.55;;;;;;;;;;5078407;28;20055;-70
2022/01/19 08:14:04;;;;;;;105.38;39.80;;;;;;;;;;5084353;28;20130;-70
2022/01/19 08:16:32;;;;;;;100.75;40.25;;;;;;;;;;5080904;28;20060;-70
2022/01/19 08:18:59;;;;;;;90.25;39.45;;;;;;;;;;5080235;28;20472;-70
2022/01/19 08:21:26;;;;;;;82.00;37.90;;;;;;;;;;5084072;28;20520;-70
2022/01/19 08:23:54;;;;;;;90.57;38.40;;;;;;;;;;5078970;28;20102;-70
2022/01/19 08:26:22;;;;;;;86.72;38.40;;;;;;;;;;5083833;28;20064;-70
2022/01/19 08:28:49;;;;;;;85.40;37.75;;;;;;;;;;5079360;28;20950;-70
2022/01/19 08:31:16;;;;;;;82.00;37.92;;;;;;;;;;5080337;28;20043;-70
2022/01/19 08:33:43;;;;;;;81.40;36.50;;;;;;;;;;5082971;28;20052;-70
2022/01/19 08:36:10;;;;;;;78.95;35.92;;;;;;;;;;5081988;28;20056;-70
2022/01/19 08:38:39;;;;;;;76.78;35.78;;;;;;;;;;5083357;28;20055;-70
2022/01/19 08:41:08;;;;;;;82.18;36.75;;;;;;;;;;5079549;28;20094;-70
2022/01/19 08:43:35;;;;;;;86.43;37.55;;;;;;;;;;5081412;28;20044;-70
2022/01/19 08:46:03;;;;;;;87.32;37.83;;;;;;;;;;5086948;28;20189;-70
2022/01/19 08:48:30;;;;;;;77.18;36.03;;;;;;;;;;5081082;28;20056;-70
2022/01/19 08:50:57;;;;;;;80.68;37.90;;;;;;;;;;5075039;28;20232;-70
2022/01/19 08:53:24;;;;;;;87.53;37.45;;;;;;;;;;5076889;28;20040;-70
2022/01/19 08:55:52;;;;;;;76.93;35.80;;;;;;;;;;5079958;28;20515;-70
2022/01/19 08:58:20;;;;;;;76.13;36.88;;;;;;;;;;5074921;28;20052;-70
2022/01/19 09:00:47;;;;;;;80.47;38.13;;;;;;;;;;5082580;28;20109;-71
2022/01/19 09:03:15;;;;;;;73.90;37.60;;;;;;;;;;5080170;28;20059;-70
2022/01/19 09:05:43;;;;;;;78.47;36.83;;;;;;;;;;5076695;28;20400;-71
2022/01/19 09:08:10;;;;;;;75.57;37.28;;;;;;;;;;5081010;28;20053;-71
2022/01/19 09:10:40;;;;;;;88.90;39.10;;;;;;;;;;5075398;28;20048;-71
2022/01/19 09:13:07;;;;;;;81.55;37.85;;;;;;;;;;5075838;28;20383;-70
2022/01/19 09:15:36;;;;;;;79.75;38.00;;;;;;;;;;5079533;28;20127;-70
2022/01/19 09:18:04;;;;;;;75.97;37.50;;;;;;;;;;5079763;28;20041;-70
2022/01/19 09:20:31;;;;;;;71.72;36.08;;;;;;;;;;5074808;28;20052;-70
2022/01/19 09:22:58;;;;;;;70.95;37.35;;;;;;;;;;5076929;28;20055;-70
2022/01/19 09:25:25;;;;;;;82.10;38.70;;;;;;;;;;5076078;28;20085;-71
2022/01/19 09:27:53;;;;;;;79.15;37.92;;;;;;;;;;5071817;28;20052;-71
2022/01/19 09:30:24;;;;;;;77.78;36.72;;;;;;;;;;5080820;28;20051;-71
2022/01/19 09:33:06;;;;;;;78.88;37.22;;;;;;;;;;5081132;28;20044;-71
2022/01/19 09:35:50;;;;;;;75.00;37.22;;;;;;;;;;5081095;28;20051;-69
2022/01/19 09:38:17;;;;;;;80.28;37.78;;;;;;;;;;5077030;28;20136;-70
2022/01/19 09:40:44;;;;;;;82.63;38.00;;;;;;;;;;5080568;28;20043;-70
2022/01/19 09:43:11;;;;;;;87.00;39.67;;;;;;;;;;5078395;28;20044;-70
2022/01/19 09:45:39;;;;;;;72.30;37.78;;;;;;;;;;5076253;28;20053;-70
2022/01/19 09:48:08;;;;;;;78.43;38.28;;;;;;;;;;5078941;28;20054;-71
2022/01/19 09:50:35;;;;;;;80.90;40.28;;;;;;;;;;5079852;28;20052;-71
2022/01/19 09:53:04;;;;;;;80.65;38.78;;;;;;;;;;5075624;28;20051;-71
2022/01/19 09:55:32;;;;;;;80.70;39.38;;;;;;;;;;5079298;28;20048;-71
2022/01/19 09:57:59;;;;;;;78.45;37.15;;;;;;;;;;5078437;28;20058;-71
2022/01/19 10:00:26;;;;;;;80.55;40.05;;;;;;;;;;5076411;28;20051;-71
2022/01/19 10:03:08;;;;;;;90.65;40.55;;;;;;;;;;5077483;28;20064;-71
2022/01/19 10:05:38;;;;;;;87.32;39.80;;;;;;;;;;5079943;28;20088;-71
2022/01/19 10:08:05;;;;;;;90.78;40.78;;;;;;;;;;5076922;28;20330;-71
2022/01/19 10:10:32;;;;;;;83.03;40.47;;;;;;;;;;5078107;28;20051;-71
2022/01/19 10:18:33;;;;;;;80.82;40.00;;;;;;;;;;5075936;28;20135;-71
2022/01/19 10:21:06;;;;;;;71.90;39.10;;;;;;;;;;5075689;28;20093;-71
2022/01/19 10:23:36;;;;;;;78.68;38.58;;;;;;;;;;5074167;28;20051;-71
2022/01/19 10:26:07;;;;;;;79.43;38.97;;;;;;;;;;5078426;28;20055;-71
2022/01/19 10:28:54;;;;;;;79.75;39.03;;;;;;;;;;5072613;28;20525;-71
2022/01/19 10:31:21;;;;;;;73.60;37.25;;;;;;;;;;5076919;28;20514;-71
2022/01/19 10:34:08;;;;;;;71.68;35.40;;;;;;;;;;5080960;28;20040;-71
2022/01/19 10:36:43;;;;;;;69.82;34.92;;;;;;;;;;5080812;28;20055;-71
2022/01/19 10:39:10;;;;;;;64.60;34.20;;;;;;;;;;5077814;28;20051;-71
2022/01/19 10:41:56;;;;;;;71.15;33.67;;;;;;;;;;5080834;28;20056;-71
2022/01/19 10:44:29;;;;;;;61.78;30.50;;;;;;;;;;5078376;28;20055;-71
2022/01/19 10:46:56;;;;;;;57.15;27.50;;;;;;;;;;5080605;28;20108;-71
2022/01/19 10:49:25;;;;;;;56.92;27.02;;;;;;;;;;5080733;28;20044;-71
2022/01/19 10:51:57;;;;;;;36.50;16.65;;;;;;;;;;5083443;28;20048;-71
2022/01/19 10:54:27;;;;;;;34.40;14.80;;;;;;;;;;5079268;28;20552;-71
2022/01/19 10:56:57;;;;;;;27.98;11.35;;;;;;;;;;5077067;28;20048;-71
2022/01/19 10:59:27;;;;;;;26.35;9.77;;;;;;;;;;5080508;28;21678;-71
2022/01/19 11:01:55;;;;;;;25.20;9.27;;;;;;;;;;5083365;28;20048;-71
2022/01/19 11:04:24;;;;;;;26.70;8.48;;;;;;;;;;5084956;28;20406;-71
2022/01/19 11:06:53;;;;;;;27.42;8.63;;;;;;;;;;5080090;28;20063;-71
2022/01/19 11:09:25;;;;;;;23.48;8.27;;;;;;;;;;5083515;28;20048;-71
2022/01/19 11:11:52;;;;;;;21.10;8.18;;;;;;;;;;5081189;28;20054;-71
2022/01/19 11:14:20;;;;;;;22.33;7.47;;;;;;;;;;5082614;28;20051;-71
2022/01/19 11:16:48;;;;;;;23.55;7.32;;;;;;;;;;5082077;28;20080;-71
2022/01/19 11:19:16;;;;;;;24.30;7.30;;;;;;;;;;5078795;28;20048;-71
2022/01/19 11:21:48;;;;;;;19.73;7.20;;;;;;;;;;5077101;28;20145;-71
2022/01/19 11:24:21;;;;;;;24.10;6.85;;;;;;;;;;5077940;28;20063;-71
2022/01/19 11:26:50;;;;;;;24.33;7.50;;;;;;;;;;5081542;28;20057;-71
2022/01/19 11:29:19;;;;;;;26.77;7.25;;;;;;;;;;5097457;28;20117;-71
2022/01/19 11:31:47;;;;;;;21.67;7.07;;;;;;;;;;5098108;28;20148;-71
2022/01/19 11:34:14;;;;;;;29.00;7.90;;;;;;;;;;5079436;28;20188;-71
2022/01/19 11:36:43;;;;;;;20.23;6.45;;;;;;;;;;5079097;28;20060;-71
2022/01/19 11:39:12;;;;;;;23.98;7.18;;;;;;;;;;5082494;28;20055;-72
2022/01/19 11:41:44;;;;;;;23.35;6.90;;;;;;;;;;5081666;28;20043;-72
2022/01/19 11:44:14;;;;;;;27.38;7.07;;;;;;;;;;5077567;28;20109;-72
2022/01/19 11:46:43;;;;;;;28.27;7.72;;;;;;;;;;5078358;28;20059;-72
2022/01/19 11:49:11;;;;;;;29.85;8.30;;;;;;;;;;5079315;28;20384;-72
2022/01/19 11:51:40;;;;;;;21.67;7.82;;;;;;;;;;5080909;28;20153;-72
2022/01/19 11:54:09;;;;;;;28.80;8.43;;;;;;;;;;5082144;28;20044;-72
2022/01/19 11:57:05;;;;;;;27.35;8.32;;;;;;;;;;5079137;28;20495;-72
2022/01/19 11:59:36;;;;;;;25.88;8.15;;;;;;;;;;5082060;28;20048;-73
2022/01/19 12:02:18;;;;;;;31.23;7.90;;;;;;;;;;5083002;28;20052;-73
2022/01/19 12:04:45;;;;;;;23.48;8.05;;;;;;;;;;5074711;28;21061;-73
2022/01/19 12:07:27;;;;;;;26.98;7.18;;;;;;;;;;5082255;28;20052;-73
2022/01/19 12:09:58;;;;;;;36.55;7.88;;;;;;;;;;5079636;28;20052;-73
2022/01/19 12:12:29;;;;;;;26.52;7.47;;;;;;;;;;5075695;28;20056;-73
2022/01/19 12:14:58;;;;;;;25.73;8.20;;;;;;;;;;5075731;28;20070;-73
2022/01/19 12:17:51;;;;;;;27.40;7.43;;;;;;;;;;5079334;28;20044;-73
2022/01/19 12:20:33;;;;;;;32.90;7.40;;;;;;;;;;5079088;28;20135;-73
2022/01/19 12:23:15;;;;;;;29.55;7.32;;;;;;;;;;5077446;28;20055;-73
2022/01/19 12:25:53;;;;;;;26.98;6.97;;;;;;;;;;5075587;28;20052;-73
2022/01/19 12:28:35;;;;;;;24.35;6.90;;;;;;;;;;5073330;28;20099;-73
2022/01/19 12:31:17;;;;;;;26.02;6.60;;;;;;;;;;5073629;28;20059;-72
2022/01/19 12:33:59;;;;;;;20.77;6.20;;;;;;;;;;5074153;28;20059;-72
2022/01/19 12:36:44;;;;;;;29.95;7.20;;;;;;;;;;5076495;28;20060;-72
2022/01/19 12:39:26;;;;;;;24.52;6.93;;;;;;;;;;5080593;28;20331;-72
2022/01/19 12:41:56;;;;;;;27.60;6.82;;;;;;;;;;5097793;28;20056;-72
2022/01/19 12:44:39;;;;;;;29.30;6.50;;;;;;;;;;5078358;28;20109;-72
2022/01/19 12:47:26;;;;;;;25.27;5.72;;;;;;;;;;5078384;28;20066;-72
2022/01/19 12:49:56;;;;;;;25.02;5.63;;;;;;;;;;5077488;28;20048;-72
2022/01/19 12:52:24;;;;;;;23.50;5.80;;;;;;;;;;5073946;28;20048;-71
2022/01/19 12:54:52;;;;;;;20.90;5.88;;;;;;;;;;5082492;28;20036;-71
2022/01/19 12:57:19;;;;;;;24.55;7.15;;;;;;;;;;5080809;28;20113;-71
2022/01/19 12:59:48;;;;;;;28.13;6.57;;;;;;;;;;5081948;28;20053;-71
2022/01/19 13:02:17;;;;;;;23.75;6.90;;;;;;;;;;5084339;28;20438;-70
2022/01/19 13:04:46;;;;;;;35.70;7.13;;;;;;;;;;5080134;28;20134;-70
2022/01/19 13:07:20;;;;;;;35.47;6.85;;;;;;;;;;5083710;28;20044;-70
2022/01/19 13:10:05;;;;;;;38.65;7.40;;;;;;;;;;5080488;28;20121;-70
2022/01/19 13:12:40;;;;;;;35.13;7.35;;;;;;;;;;5080884;28;20048;-72
2022/01/19 13:15:07;;;;;;;27.42;7.85;;;;;;;;;;5078733;28;20040;-71
2022/01/19 13:17:41;;;;;;;33.17;8.20;;;;;;;;;;5077208;28;20052;-71
2022/01/19 13:20:10;;;;;;;29.95;7.85;;;;;;;;;;5075939;28;20388;-71
2022/01/19 13:22:46;;;;;;;37.90;8.27;;;;;;;;;;5081656;28;20063;-71
2022/01/19 13:25:17;;;;;;;34.50;7.95;;;;;;;;;;5073555;28;20054;-71
2022/01/19 13:27:44;;;;;;;39.42;9.05;;;;;;;;;;5076108;28;20882;-71
2022/01/19 13:30:15;;;;;;;37.60;9.38;;;;;;;;;;5075391;28;21421;-71
2022/01/19 13:32:43;;;;;;;42.95;10.25;;;;;;;;;;5095714;27;20546;-71
2022/01/19 13:35:11;;;;;;;44.08;10.98;;;;;;;;;;5073378;28;20639;-70
2022/01/19 13:37:41;;;;;;;50.40;11.55;;;;;;;;;;5079766;28;20111;-71
2022/01/19 13:40:10;;;;;;;51.50;11.90;;;;;;;;;;5077400;28;20364;-70
2022/01/19 13:42:40;;;;;;;42.53;12.43;;;;;;;;;;5078105;28;20667;-70
2022/01/19 13:45:11;;;;;;;54.38;13.93;;;;;;;;;;5077000;28;20047;-70
2022/01/19 13:47:55;;;;;;;57.45;12.60;;;;;;;;;;5078806;28;20052;-70
2022/01/19 13:50:22;;;;;;;55.60;13.60;;;;;;;;;;5071839;28;20048;-69
2022/01/19 13:52:50;;;;;;;48.67;12.30;;;;;;;;;;5074851;28;20048;-70
2022/01/19 13:55:19;;;;;;;45.65;12.43;;;;;;;;;;5077625;28;20048;-69
2022/01/19 13:57:46;;;;;;;55.95;14.23;;;;;;;;;;5073979;28;20067;-70
2022/01/19 14:00:16;;;;;;;45.00;13.00;;;;;;;;;;5075684;28;20097;-70
2022/01/19 14:02:56;;;;;;;48.70;14.57;;;;;;;;;;5075291;28;20127;-69
2022/01/19 14:05:35;;;;;;;49.15;14.75;;;;;;;;;;5077985;28;20039;-69
2022/01/19 14:08:02;;;;;;;45.53;15.02;;;;;;;;;;5077602;28;20056;-70
2022/01/19 14:10:40;;;;;;;54.83;18.20;;;;;;;;;;5077874;28;20478;-70
2022/01/19 14:13:25;;;;;;;65.18;19.52;;;;;;;;;;5078282;28;21582;-71
2022/01/19 14:15:53;;;;;;;60.63;18.70;;;;;;;;;;5072955;28;20124;-71
2022/01/19 14:18:20;;;;;;;72.47;18.90;;;;;;;;;;5081239;28;20052;-71
2022/01/19 14:21:05;;;;;;;71.32;21.83;;;;;;;;;;5076605;28;20060;-71
2022/01/19 14:23:32;;;;;;;71.50;21.48;;;;;;;;;;5073958;28;20048;-71
2022/01/19 14:26:08;;;;;;;67.18;22.27;;;;;;;;;;5076913;28;20063;-71
2022/01/19 14:28:36;;;;;;;92.97;23.27;;;;;;;;;;5077199;28;20559;-71
2022/01/19 14:31:03;;;;;;;78.88;23.90;;;;;;;;;;5079783;28;20055;-71
2022/01/19 14:33:31;;;;;;;68.90;21.67;;;;;;;;;;5078163;28;20534;-71
2022/01/19 14:35:59;;;;;;;88.80;21.20;;;;;;;;;;5079321;28;20055;-71
2022/01/19 14:38:30;;;;;;;75.55;22.67;;;;;;;;;;5077730;28;20399;-71
2022/01/19 14:41:09;;;;;;;64.85;20.13;;;;;;;;;;5078140;28;20487;-70
2022/01/19 14:43:41;;;;;;;63.13;18.73;;;;;;;;;;5076728;28;20488;-70
2022/01/19 14:46:11;;;;;;;68.70;18.40;;;;;;;;;;5073408;28;20691;-70
2022/01/19 14:48:40;;;;;;;76.68;19.25;;;;;;;;;;5078314;28;20060;-70
2022/01/19 14:51:17;;;;;;;60.88;17.83;;;;;;;;;;5075560;28;20048;-70
2022/01/19 14:53:45;;;;;;;68.43;17.73;;;;;;;;;;5078164;28;20052;-71
2022/01/19 14:56:13;;;;;;;66.97;16.77;;;;;;;;;;5079874;28;20067;-71
2022/01/19 14:58:40;;;;;;;62.60;17.02;;;;;;;;;;5082568;28;20132;-71
2022/01/19 15:01:08;;;;;;;63.60;17.08;;;;;;;;;;5077018;28;20048;-71
2022/01/19 15:03:35;;;;;;;55.50;15.30;;;;;;;;;;5080771;28;21302;-71
2022/01/19 15:06:02;;;;;;;62.28;15.05;;;;;;;;;;5077128;28;20052;-71
2022/01/19 15:08:29;;;;;;;62.85;13.52;;;;;;;;;;5075320;28;20538;-71
2022/01/19 15:10:57;;;;;;;60.08;13.55;;;;;;;;;;5078287;28;20109;-71
2022/01/19 15:13:26;;;;;;;58.92;12.02;;;;;;;;;;5079289;28;20063;-71
2022/01/19 15:15:53;;;;;;;52.30;11.48;;;;;;;;;;5075610;28;20074;-71
2022/01/19 15:18:21;;;;;;;46.05;9.30;;;;;;;;;;5077697;28;20052;-71
2022/01/19 15:20:49;;;;;;;55.42;10.15;;;;;;;;;;5080669;28;20051;-71
2022/01/19 15:23:17;;;;;;;59.60;10.45;;;;;;;;;;5078850;28;20142;-71
2022/01/19 15:25:45;;;;;;;46.67;8.68;;;;;;;;;;5078538;28;20074;-71
2022/01/19 15:28:12;;;;;;;55.30;8.65;;;;;;;;;;5077053;28;20056;-71
2022/01/19 15:30:42;;;;;;;46.58;5.72;;;;;;;;;;5076632;28;20044;-71
2022/01/19 15:33:10;;;;;;;28.98;4.45;;;;;;;;;;5077994;28;20490;-71
2022/01/19 15:35:37;;;;;;;37.67;6.57;;;;;;;;;;5081976;28;20384;-71
2022/01/19 15:38:05;;;;;;;41.85;6.65;;;;;;;;;;5079186;28;20372;-71
2022/01/19 15:40:32;;;;;;;55.83;6.05;;;;;;;;;;5079714;28;20052;-71
2022/01/19 15:43:00;;;;;;;48.20;5.90;;;;;;;;;;5080723;28;20063;-71
2022/01/19 15:45:29;;;;;;;42.17;5.72;;;;;;;;;;5083980;28;20121;-70